Terminal Aerodrome Forecast
Issued by NWS

Home | Current Version | Previous Version | Text Only | Print | Product List | Glossary On
Versions: 1 2 3 4 5 6 7 8 9 10 11 12 13
000
FTUS41 KPHI 250524
TAFPNE
TAF
KPNE 250524Z 2506/2606 08008KT 6SM RA BR BKN005 OVC015
     FM250800 08008KT 4SM -RA BR OVC005
      TEMPO 2508/2512 2SM RA BR OVC005
     FM251200 08009KT 2SM RA BR OVC005
     FM251600 07005KT 6SM -SHRA OVC005
     FM252000 VRB03KT P6SM OVC008 PROB30 2520/2524 5SM -SHRA
     FM260000 VRB03KT P6SM OVC008
     FM260500 32005KT P6SM BKN015=

USA.gov is the U.S. government's official web portal to all federal, state and local government web resources and services.